岡山グライダークラブ活動状況掲示板あなたは無料カウンター人目の訪問者です

岡山グライダークラブ
岡山市浦安南町639-1 岡南飛行場
 使用機:シャイベ式 SF25C型 ファルケ   JA2330
      ヴァレンティン式17E型 タイフーン  JA2342
 練習日:毎日曜日  クラブルーム:電話 086-265-1810
この掲示板は岡山グライダークラブの活動状況をお知らせする掲示板です。
!!!この掲示板は投稿規制をしています。!!!
クラブ関連各種情報は 岡山グライダークラブクラブルーム      を       .
  ブリーフイング情報は  岡山グライダークラブブリーフィングルーム  をご覧下さい。 .
※写真はクリックすると拡大して見ることが出来ます。
岡南飛行場へのアクセス等は 岡南飛行場管理事務所 をご覧ください。
クラブの ホームページ ができました。

 
12月23日
by OGC at 2018/12/23(日) 23:06:02 No.20181223230402  削除コメント
1024 x 768 x 76,842バイト
No.1

12月23日
本日の参加者
  会員      13名
  その他      0名


@本日の様子




METAR
RJBK 230100Z VRB02KT 15KM FEW008ST SCT/// 11/09 Q1017 A3004
RJOB 230100Z VRB02KT 9999 FEW008 SCT010 13/09 Q1016
RJOT 230100Z VRB01KT 9999 FEW010 SCT080 13/10 Q1017
RJOA 230100Z VRB02KT 9999 BCFG FEW000 BKN060 BKN100 11/08 Q1017
TAF
RJOB 222306Z 2300/2406 06004KT 9999 FEW015 BKN035
           TEMPO 2300/2302 FEW001 BKN005 BKN040
           BECMG 2302/2304 20005KT
           TEMPO 2304/2309 3000 -SHRA BR BCFG FEW000 SCT003 BKN008
           BECMG 2321/2400 03006KT
RJOT 222306Z 2300/2406 15004KT 9999 FEW010 SCT060
           BECMG 2300/2302 27006KT
           TEMPO 2306/2310 4000 -SHRA BR
RJOA 222305Z 2300/2406 25005KT 7000 -SHRA FEW001 SCT015 BKN030
           TEMPO 2303/2308 4000 -SHRA BR BCFG FEW000 BKN009 BKN015
           BECMG 2307/2309 32012KT

本日も曇り空、昼すぎから小雨が予想され、レーダーとにらめっこしながらのフライトになりました。視程が悪く地平線が見えにくい天候でしたが、訓練生にはこれもいい訓練になりました。
先週、同様、予想より早く雨が降り始め、一時、クラブルームで待機、雨が止むとすぐ、また訓練フライトを再開しました。
また、格納庫では、恒例の年末の大掃除を行い、正月を迎える準備を行いました。


解散    16:40

1番機  11:10離陸 撤収機  16:10着陸 

SF25C JA2330 ファルケ     08Flt.2h25min  
17E   JA2342 タイフーン    03Flt.1h20min  
合計                    11Flt.3h45min

    << 戻る || ホームページ || 最新の掲示板へ